sim
Sign-in with your pilot id or email,
or register
Callsign
Passwort

Schedule Details

Flight Number: OEO4252
Departure: Vienna International Airport (LOWW) at 09:50
Arrival: Thessaloniki International Airport (LGTS) at 11:40

Weather Information
Getting current METAR information for LOWW 211820Z 33008KT 9999 FEW040 SCT140 BKN180 19/12 Q1027 NOSIG
Getting current METAR information for LGTS 211820Z 10005KT CAVOK 27/13 Q1016 NOSIG

Schedule Frequency

Route Map